Time;durP1;ratioP1;P1;durP2;ratioP2;P2;SDS_P1;SDS_P2;PMS_P1;PMS_P2;Temp;Humidity;BMP_temperature;BMP_pressure;BME280_temperature;BME280_humidity;BME280_pressure;Samples;Min_cycle;Max_cycle;Signal;HPM_P1;HPM_P2
2023/11/05 00:00:26;;;;;;;0.60;0.60;;;;;;;8.85;72.39;95202.81;4995996;28;20038;-77
2023/11/05 00:02:51;;;;;;;0.70;0.70;;;;;;;9.23;70.62;95204.63;5009121;28;20605;-77
2023/11/05 00:05:17;;;;;;;0.70;0.70;;;;;;;9.11;71.38;95213.78;5011570;28;20037;-77
2023/11/05 00:07:42;;;;;;;0.60;0.60;;;;;;;9.25;70.28;95214.34;4991888;28;20044;-77
2023/11/05 00:10:09;;;;;;;0.60;0.60;;;;;;;9.37;69.94;95213.19;4976764;28;20523;-77
2023/11/05 00:12:34;;;;;;;0.60;0.60;;;;;;;9.30;70.25;95206.25;5009264;28;20049;-77
2023/11/05 00:14:59;;;;;;;0.70;0.70;;;;;;;9.19;70.44;95210.94;4989191;28;20049;-77
2023/11/05 00:17:25;;;;;;;0.60;0.60;;;;;;;9.24;70.22;95201.06;4990858;28;20042;-77
2023/11/05 00:19:50;;;;;;;0.60;0.60;;;;;;;9.08;70.73;95199.66;5006492;28;20480;-77
2023/11/05 00:22:18;;;;;;;0.68;0.68;;;;;;;9.22;70.13;95193.13;5012607;28;20056;-76
2023/11/05 00:24:43;;;;;;;;;;;;;;;9.17;70.29;95191.47;5012471;28;20488;-76
2023/11/05 00:27:09;;;;;;;0.70;0.70;;;;;;;8.64;72.22;95194.38;4981503;28;20287;-76
2023/11/05 00:29:34;;;;;;;0.60;0.60;;;;;;;8.20;74.42;95189.91;5006576;28;20038;-76
2023/11/05 00:32:00;;;;;;;0.60;0.60;;;;;;;8.15;74.17;95167.88;5006370;28;20155;-76
2023/11/05 00:34:25;;;;;;;0.70;0.70;;;;;;;8.64;71.94;95165.16;5008185;28;20124;-76
2023/11/05 00:36:51;;;;;;;0.60;0.60;;;;;;;8.56;72.57;95158.25;5008118;28;20396;-77
2023/11/05 00:39:16;;;;;;;0.70;0.70;;;;;;;8.79;71.18;95166.59;4991076;28;20057;-76
2023/11/05 00:41:42;;;;;;;0.70;0.70;;;;;;;8.45;72.80;95154.03;5010271;28;20119;-76
2023/11/05 00:44:07;;;;;;;0.68;0.68;;;;;;;8.36;73.03;95154.19;5006694;28;20476;-77
2023/11/05 00:46:33;;;;;;;0.60;0.60;;;;;;;8.32;72.77;95143.63;4998962;28;20509;-77
2023/11/05 00:48:58;;;;;;;0.70;0.70;;;;;;;8.30;73.05;95138.38;5003125;28;20042;-76
2023/11/05 00:51:24;;;;;;;0.70;0.70;;;;;;;8.61;71.73;95137.75;5005037;28;20060;-76
2023/11/05 00:53:50;;;;;;;0.60;0.60;;;;;;;8.61;71.57;95135.09;4989735;28;20061;-77
2023/11/05 00:56:16;;;;;;;0.70;0.70;;;;;;;8.70;71.45;95111.84;4990911;28;20960;-78
2023/11/05 00:58:41;;;;;;;0.60;0.60;;;;;;;8.80;71.10;95114.31;4996920;28;20038;-75
2023/11/05 01:01:07;;;;;;;0.70;0.70;;;;;;;8.99;70.01;95111.22;4989182;28;20086;-76
2023/11/05 01:03:34;;;;;;;0.70;0.70;;;;;;;9.08;69.46;95095.97;4991966;28;20073;-78
2023/11/05 01:06:00;;;;;;;0.70;0.70;;;;;;;9.08;69.07;95096.84;4979200;28;20041;-78
2023/11/05 01:08:25;;;;;;;0.70;0.70;;;;;;;9.32;68.57;95089.19;4992695;28;20034;-76
2023/11/05 01:10:51;;;;;;;0.70;0.70;;;;;;;9.40;67.94;95085.41;4989045;28;20431;-75
2023/11/05 01:13:16;;;;;;;0.70;0.70;;;;;;;8.90;69.84;95076.84;4991654;28;20033;-76
2023/11/05 01:15:42;;;;;;;0.60;0.60;;;;;;;8.93;69.51;95083.91;4996865;28;20046;-78
2023/11/05 01:18:07;;;;;;;0.70;0.70;;;;;;;8.89;69.86;95087.53;5004963;28;20037;-76
2023/11/05 01:20:33;;;;;;;0.60;0.60;;;;;;;8.86;69.96;95083.19;5002625;28;20095;-76
2023/11/05 01:22:58;;;;;;;0.60;0.60;;;;;;;8.97;69.50;95082.94;4994295;28;20125;-76
2023/11/05 01:25:24;;;;;;;0.63;0.63;;;;;;;9.05;69.42;95082.72;4968646;28;20432;-76
2023/11/05 01:27:49;;;;;;;0.70;0.70;;;;;;;9.06;69.18;95082.72;4992834;28;20037;-76
2023/11/05 01:30:15;;;;;;;0.70;0.70;;;;;;;8.85;69.64;95067.25;4992093;28;20118;-77
2023/11/05 01:32:40;;;;;;;0.70;0.70;;;;;;;9.29;68.10;95059.97;4991717;28;20052;-76
2023/11/05 01:35:06;;;;;;;0.70;0.70;;;;;;;8.85;69.79;95056.63;4992442;28;20041;-76
2023/11/05 01:37:32;;;;;;;0.60;0.60;;;;;;;8.92;69.34;95051.13;5003022;28;20033;-76
2023/11/05 01:39:57;;;;;;;0.70;0.70;;;;;;;8.96;69.07;95044.84;4975009;28;20190;-76
2023/11/05 01:42:23;;;;;;;0.60;0.60;;;;;;;9.05;69.12;95040.19;4992652;28;20454;-78
2023/11/05 01:44:49;;;;;;;0.70;0.70;;;;;;;9.54;66.85;95021.22;5005568;28;20042;-75
2023/11/05 01:47:15;;;;;;;0.60;0.60;;;;;;;9.57;66.57;95021.09;5003311;28;20060;-75
2023/11/05 01:49:40;;;;;;;0.70;0.70;;;;;;;9.55;66.76;95019.41;4992736;28;21165;-76
2023/11/05 01:52:08;;;;;;;0.60;0.60;;;;;;;9.63;66.21;95017.41;4990946;28;20049;-75
2023/11/05 01:54:34;;;;;;;0.60;0.60;;;;;;;9.86;65.83;95008.78;5005768;28;20531;-76
2023/11/05 01:57:00;;;;;;;0.60;0.60;;;;;;;9.97;65.52;95006.72;4993325;28;20037;-76
2023/11/05 01:59:26;;;;;;;0.60;0.60;;;;;;;10.03;65.28;95004.75;4988185;28;20061;-78
2023/11/05 02:01:53;;;;;;;0.60;0.60;;;;;;;10.06;65.05;94995.81;4993922;28;20038;-76
2023/11/05 02:04:18;;;;;;;0.60;0.60;;;;;;;10.36;63.74;94983.41;5007902;28;20053;-77
2023/11/05 02:06:44;;;;;;;0.60;0.60;;;;;;;10.29;63.66;94997.81;4966526;28;20034;-76
2023/11/05 02:09:10;;;;;;;0.60;0.60;;;;;;;10.42;63.23;94972.53;4973610;28;20041;-76
2023/11/05 02:11:35;;;;;;;0.60;0.60;;;;;;;10.43;63.31;94979.63;5005301;28;20070;-79
2023/11/05 02:14:01;;;;;;;0.60;0.60;;;;;;;10.61;61.95;94987.97;5005320;28;20431;-79
2023/11/05 02:16:31;;;;;;;0.52;0.52;;;;;;;10.75;61.33;94993.75;4999540;28;20571;-78
2023/11/05 02:18:59;;;;;;;0.50;0.50;;;;;;;10.87;61.03;94979.13;4992478;28;20029;-76
2023/11/05 02:21:38;;;;;;;0.50;0.50;;;;;;;10.84;61.07;94974.78;4998397;28;20052;-76
2023/11/05 02:24:03;;;;;;;0.60;0.60;;;;;;;10.87;60.92;94953.34;4988297;28;20051;-78
2023/11/05 02:26:29;;;;;;;0.50;0.50;;;;;;;10.82;60.84;94965.06;4993268;28;20038;-77
2023/11/05 02:28:57;;;;;;;0.50;0.50;;;;;;;10.93;60.11;94950.50;5004978;28;20041;-76
2023/11/05 02:31:23;;;;;;;0.50;0.50;;;;;;;10.82;61.15;94959.75;5005872;28;20066;-76
2023/11/05 02:33:48;;;;;;;0.50;0.50;;;;;;;10.84;60.83;94955.25;5001992;28;20443;-76
2023/11/05 02:36:15;;;;;;;0.50;0.50;;;;;;;10.76;60.88;94937.69;4997292;28;20070;-76
2023/11/05 02:38:42;;;;;;;0.60;0.60;;;;;;;10.72;61.44;94938.72;4982022;28;20140;-75
2023/11/05 02:41:10;;;;;;;0.55;0.55;;;;;;;10.63;60.96;94930.16;4995900;28;20042;-75
2023/11/05 02:43:36;;;;;;;0.50;0.50;;;;;;;10.78;60.16;94921.66;5011045;28;20099;-76
2023/11/05 02:46:02;;;;;;;0.50;0.50;;;;;;;10.98;59.63;94902.34;4994760;28;20077;-77
2023/11/05 02:48:27;;;;;;;0.50;0.50;;;;;;;11.16;58.24;94922.16;4990121;28;20061;-77
2023/11/05 02:50:53;;;;;;;0.52;0.52;;;;;;;11.20;58.36;94913.13;4978227;28;20037;-78
2023/11/05 02:53:19;;;;;;;0.52;0.52;;;;;;;11.36;57.57;94909.00;5010845;28;20168;-77
2023/11/05 02:55:45;;;;;;;0.55;0.55;;;;;;;11.28;57.92;94905.72;4998556;28;20077;-77
2023/11/05 02:58:14;;;;;;;0.50;0.50;;;;;;;11.20;57.96;94905.13;5009663;28;20037;-78
2023/11/05 03:00:40;;;;;;;0.50;0.50;;;;;;;11.38;57.12;94898.28;5007008;28;20045;-78
2023/11/05 03:03:06;;;;;;;0.50;0.50;;;;;;;11.40;57.06;94891.97;4998794;28;20394;-78
2023/11/05 03:05:31;;;;;;;0.60;0.60;;;;;;;11.30;57.88;94893.19;4995864;28;20053;-77
2023/11/05 03:07:57;;;;;;;0.50;0.50;;;;;;;11.06;58.59;94878.91;5001780;28;20501;-77
2023/11/05 03:10:22;;;;;;;0.50;0.50;;;;;;;11.02;58.35;94883.50;4992146;28;20042;-77
2023/11/05 03:12:48;;;;;;;0.50;0.50;;;;;;;10.88;59.41;94887.56;5012262;28;20655;-77
2023/11/05 03:15:13;;;;;;;0.50;0.50;;;;;;;10.49;61.40;94883.50;5012427;28;20100;-77
2023/11/05 03:17:39;;;;;;;0.50;0.50;;;;;;;10.59;60.10;94872.53;4990543;28;20458;-77
2023/11/05 03:20:08;;;;;;;0.50;0.50;;;;;;;10.89;58.95;94868.84;4991491;28;20045;-77
2023/11/05 03:22:35;;;;;;;0.60;0.60;;;;;;;10.73;59.54;94875.59;4992062;28;20033;-78
2023/11/05 03:25:02;;;;;;;0.60;0.60;;;;;;;10.77;58.64;94872.78;5007781;28;20053;-78
2023/11/05 03:27:28;;;;;;;0.50;0.50;;;;;;;10.78;58.95;94861.22;5012089;28;20735;-76
2023/11/05 03:29:53;;;;;;;0.50;0.50;;;;;;;10.80;59.27;94869.16;5014809;28;20511;-77
2023/11/05 03:32:19;;;;;;;0.50;0.50;;;;;;;11.18;56.67;94861.63;4999281;28;20064;-76
2023/11/05 03:34:45;;;;;;;0.50;0.50;;;;;;;11.31;56.69;94857.59;5011186;28;20479;-80
2023/11/05 03:37:11;;;;;;;0.50;0.50;;;;;;;10.83;58.57;94858.41;5000501;28;20473;-79
2023/11/05 03:39:37;;;;;;;0.50;0.50;;;;;;;10.62;58.98;94869.75;4992824;28;20041;-77
2023/11/05 03:42:03;;;;;;;0.52;0.52;;;;;;;10.68;59.07;94866.88;5006976;28;20057;-78
2023/11/05 03:44:29;;;;;;;0.50;0.50;;;;;;;11.08;56.92;94852.22;4998335;28;20206;-78
2023/11/05 03:46:56;;;;;;;0.60;0.60;;;;;;;10.85;57.65;94855.66;4996172;28;20162;-76
2023/11/05 03:49:22;;;;;;;0.60;0.60;;;;;;;11.33;55.87;94839.72;5001727;28;20038;-77
2023/11/05 03:51:47;;;;;;;0.50;0.50;;;;;;;11.08;56.85;94846.88;4994293;28;20411;-77
2023/11/05 03:54:13;;;;;;;0.50;0.50;;;;;;;11.05;56.64;94840.69;4987996;28;20072;-76
2023/11/05 03:56:40;;;;;;;0.60;0.60;;;;;;;10.85;58.00;94847.66;5007494;28;20122;-78
2023/11/05 03:59:06;;;;;;;0.52;0.52;;;;;;;10.67;58.48;94851.81;5010758;28;20468;-78
2023/11/05 04:01:31;;;;;;;0.50;0.50;;;;;;;10.83;58.36;94850.41;4994464;28;20055;-77
2023/11/05 04:03:57;;;;;;;0.50;0.50;;;;;;;10.80;57.65;94855.81;4997852;28;20029;-78
2023/11/05 04:06:22;;;;;;;0.55;0.55;;;;;;;11.05;56.51;94846.03;4978303;28;20068;-77
2023/11/05 04:08:48;;;;;;;0.50;0.50;;;;;;;11.15;56.24;94856.38;4994061;28;20049;-77
2023/11/05 04:11:14;;;;;;;0.60;0.60;;;;;;;11.33;55.32;94842.41;5008415;28;20040;-77
2023/11/05 04:13:39;;;;;;;0.50;0.50;;;;;;;11.50;55.04;94848.00;5012078;28;20180;-78
2023/11/05 04:16:05;;;;;;;0.50;0.50;;;;;;;11.12;56.53;94838.72;5003516;28;20376;-76
2023/11/05 04:18:31;;;;;;;0.50;0.50;;;;;;;11.27;55.30;94839.94;5003622;28;20042;-77
2023/11/05 04:20:56;;;;;;;0.55;0.55;;;;;;;11.06;56.45;94830.91;5014099;28;20536;-77
2023/11/05 04:23:22;;;;;;;0.60;0.60;;;;;;;11.24;55.33;94835.59;5006974;28;20061;-77
2023/11/05 04:25:47;;;;;;;0.52;0.52;;;;;;;11.16;55.67;94831.44;5006578;28;20099;-77
2023/11/05 04:28:13;;;;;;;0.50;0.50;;;;;;;11.32;54.99;94829.97;5008627;28;20076;-77
2023/11/05 04:30:38;;;;;;;0.50;0.50;;;;;;;11.23;55.43;94835.66;5006756;28;20040;-77
2023/11/05 04:33:04;;;;;;;0.50;0.50;;;;;;;11.30;55.38;94829.16;5006811;28;20720;-79
2023/11/05 04:35:30;;;;;;;0.50;0.50;;;;;;;11.32;55.44;94827.31;5010802;28;20088;-77
2023/11/05 04:37:56;;;;;;;0.60;0.60;;;;;;;11.57;54.43;94833.47;4997028;28;20041;-77
2023/11/05 04:40:22;;;;;;;0.50;0.50;;;;;;;11.66;54.11;94839.41;5007473;28;20038;-78
2023/11/05 04:42:49;;;;;;;0.50;0.50;;;;;;;11.59;54.51;94845.88;5009258;28;20111;-77
2023/11/05 04:45:15;;;;;;;0.50;0.50;;;;;;;11.73;53.91;94832.91;4998324;28;20046;-78
2023/11/05 04:47:40;;;;;;;0.50;0.50;;;;;;;11.89;53.40;94836.78;5011834;28;20052;-77
2023/11/05 04:50:07;;;;;;;0.50;0.50;;;;;;;11.88;53.68;94855.50;4997488;28;20044;-77
2023/11/05 04:52:33;;;;;;;0.50;0.50;;;;;;;11.88;54.14;94852.84;5010223;28;20042;-78
2023/11/05 04:55:00;;;;;;;0.40;0.40;;;;;;;11.93;53.61;94849.09;5009009;28;21771;-77
2023/11/05 04:57:25;;;;;;;0.43;0.43;;;;;;;12.01;53.21;94846.97;4995081;28;20050;-77
2023/11/05 04:59:51;;;;;;;0.50;0.50;;;;;;;12.03;53.30;94850.47;5009424;28;20037;-78
2023/11/05 05:02:16;;;;;;;0.40;0.40;;;;;;;11.99;53.68;94843.50;5008385;28;20030;-77
2023/11/05 05:04:42;;;;;;;0.50;0.50;;;;;;;11.92;53.89;94854.47;5004895;28;20375;-77
2023/11/05 05:07:07;;;;;;;0.50;0.50;;;;;;;11.93;53.95;94845.50;5006053;28;20087;-76
2023/11/05 05:09:34;;;;;;;0.50;0.50;;;;;;;11.85;54.68;94852.97;5004603;28;20831;-78
2023/11/05 05:12:00;;;;;;;0.50;0.50;;;;;;;11.81;55.17;94842.34;5006209;28;20041;-76
2023/11/05 05:14:26;;;;;;;0.50;0.50;;;;;;;11.93;54.23;94846.41;4989858;28;20041;-77
2023/11/05 05:16:52;;;;;;;0.40;0.40;;;;;;;11.92;54.02;94831.28;5009807;28;20038;-77
2023/11/05 05:19:17;;;;;;;0.50;0.50;;;;;;;11.90;54.41;94854.53;4992858;28;20183;-77
2023/11/05 05:21:46;;;;;;;0.50;0.50;;;;;;;11.79;55.17;94851.38;5007528;28;20516;-77
2023/11/05 05:24:12;;;;;;;0.40;0.40;;;;;;;11.88;54.74;94859.06;4991820;28;20042;-77
2023/11/05 05:26:38;;;;;;;0.50;0.50;;;;;;;11.91;55.00;94842.91;4989601;28;20038;-76
2023/11/05 05:29:04;;;;;;;0.40;0.40;;;;;;;11.94;54.55;94858.84;5005521;28;20492;-75
2023/11/05 05:31:33;;;;;;;0.40;0.40;;;;;;;11.78;55.87;94870.97;5008163;28;20045;-77
2023/11/05 05:33:59;;;;;;;0.40;0.40;;;;;;;11.69;55.93;94873.97;5009243;28;20119;-77
2023/11/05 05:36:25;;;;;;;0.40;0.40;;;;;;;11.68;55.53;94877.59;4991503;28;20058;-77
2023/11/05 05:38:52;;;;;;;0.40;0.40;;;;;;;11.61;55.78;94871.63;5007576;28;20072;-77
2023/11/05 05:41:17;;;;;;;0.50;0.50;;;;;;;11.57;56.54;94892.22;5005569;28;20048;-78
2023/11/05 05:43:43;;;;;;;0.50;0.50;;;;;;;11.73;56.20;94870.28;5006449;28;20033;-77
2023/11/05 05:46:15;;;;;;;0.50;0.50;;;;;;;11.73;55.95;94878.28;5006971;28;20395;-77
2023/11/05 05:48:41;;;;;;;0.50;0.50;;;;;;;11.59;56.83;94883.25;5007077;28;20084;-78
2023/11/05 05:51:12;;;;;;;0.50;0.50;;;;;;;11.43;57.27;94880.28;4996136;28;20064;-78
2023/11/05 05:53:38;;;;;;;0.50;0.50;;;;;;;11.42;57.21;94882.09;5014178;28;20045;-79
2023/11/05 05:56:04;;;;;;;0.50;0.50;;;;;;;11.38;57.43;94883.13;5003217;28;20083;-79
2023/11/05 05:58:30;;;;;;;0.50;0.50;;;;;;;11.28;58.08;94881.72;4990397;28;20035;-77
2023/11/05 06:00:56;;;;;;;0.50;0.50;;;;;;;11.34;57.96;94880.63;5013695;28;20033;-79
2023/11/05 06:03:24;;;;;;;0.50;0.50;;;;;;;11.22;58.43;94893.47;5006245;28;20034;-78
2023/11/05 06:05:50;;;;;;;0.50;0.50;;;;;;;11.21;58.55;94886.41;5014484;28;20622;-78
2023/11/05 06:08:17;;;;;;;0.50;0.50;;;;;;;11.25;58.58;94901.34;5014060;28;20838;-78
2023/11/05 06:10:42;;;;;;;0.55;0.55;;;;;;;11.18;59.00;94893.63;5014503;28;20132;-78
2023/11/05 06:13:08;;;;;;;0.60;0.60;;;;;;;11.10;58.95;94893.03;5008490;28;20038;-78
2023/11/05 06:15:33;;;;;;;0.50;0.50;;;;;;;10.92;60.31;94895.41;5010944;28;20034;-78
2023/11/05 06:17:59;;;;;;;0.50;0.50;;;;;;;10.96;60.27;94882.81;5012109;28;20599;-78
2023/11/05 06:20:25;;;;;;;0.50;0.50;;;;;;;11.29;58.77;94887.00;5008835;28;20053;-78
2023/11/05 06:22:54;;;;;;;0.57;0.57;;;;;;;11.22;58.74;94879.28;4993180;28;20111;-78
2023/11/05 06:25:19;;;;;;;0.50;0.50;;;;;;;11.16;59.42;94884.78;4998392;28;20399;-77
2023/11/05 06:27:45;;;;;;;0.50;0.50;;;;;;;11.12;59.55;94885.84;5010559;28;20038;-77
2023/11/05 06:30:11;;;;;;;0.50;0.50;;;;;;;11.10;59.61;94898.34;5009358;28;20041;-78
2023/11/05 06:32:38;;;;;;;0.50;0.50;;;;;;;11.25;59.28;94888.00;5009067;28;20034;-76
2023/11/05 06:35:04;;;;;;;0.60;0.60;;;;;;;11.14;60.24;94905.34;4982225;28;20038;-77
2023/11/05 06:37:30;;;;;;;0.50;0.50;;;;;;;11.11;60.02;94900.09;5009692;28;20399;-78
2023/11/05 06:39:57;;;;;;;0.60;0.60;;;;;;;11.05;60.13;94903.84;5004282;28;20041;-78
2023/11/05 06:42:22;;;;;;;0.60;0.60;;;;;;;11.17;60.07;94908.78;5004033;28;20082;-79
2023/11/05 06:44:48;;;;;;;0.60;0.60;;;;;;;11.29;59.99;94903.00;5015768;28;20057;-78
2023/11/05 06:47:14;;;;;;;0.50;0.50;;;;;;;11.29;59.88;94903.00;4994110;28;20041;-77
2023/11/05 06:49:39;;;;;;;0.50;0.50;;;;;;;11.28;59.78;94908.41;5003446;28;20518;-77
2023/11/05 06:52:05;;;;;;;0.50;0.50;;;;;;;11.22;60.56;94919.28;4994830;28;20089;-76
2023/11/05 06:54:31;;;;;;;0.50;0.50;;;;;;;11.37;60.09;94926.75;5013540;28;20128;-77
2023/11/05 06:56:57;;;;;;;0.50;0.50;;;;;;;11.33;60.29;94930.44;5015245;28;20029;-77
2023/11/05 06:59:23;;;;;;;0.50;0.50;;;;;;;11.41;59.69;94917.72;5013131;28;20090;-78
2023/11/05 07:01:49;;;;;;;0.57;0.57;;;;;;;11.42;60.23;94926.59;4998105;28;20050;-77
2023/11/05 07:04:15;;;;;;;0.60;0.60;;;;;;;11.46;59.93;94926.44;5011543;28;20467;-78
2023/11/05 07:06:40;;;;;;;0.50;0.50;;;;;;;11.49;60.13;94931.66;5011648;28;20045;-79
2023/11/05 07:09:08;;;;;;;0.60;0.60;;;;;;;11.45;60.15;94932.72;5009838;28;20061;-78
2023/11/05 07:11:34;;;;;;;;;;;;;;;11.50;59.95;94937.88;5011980;28;20045;-77
2023/11/05 07:14:00;;;;;;;0.60;0.60;;;;;;;11.48;60.08;94937.03;5010761;28;19928;-78
2023/11/05 07:16:26;;;;;;;0.50;0.50;;;;;;;11.50;59.53;94941.41;4976170;28;20053;-77
2023/11/05 07:18:52;;;;;;;0.60;0.60;;;;;;;11.51;60.37;94940.50;5008964;28;20041;-78
2023/11/05 07:21:17;;;;;;;0.50;0.50;;;;;;;11.45;60.16;94934.47;4991762;28;20046;-77
2023/11/05 07:23:43;;;;;;;0.60;0.60;;;;;;;11.58;60.06;94946.47;5009589;28;20041;-79
2023/11/05 07:26:10;;;;;;;0.50;0.50;;;;;;;11.48;60.38;94937.03;5007383;28;20048;-79
2023/11/05 07:28:36;;;;;;;;;;;;;;;11.75;59.56;94948.53;5007830;28;20121;-78
2023/11/05 07:31:02;;;;;;;0.50;0.50;;;;;;;11.73;59.46;94950.38;4992618;28;20068;-78
2023/11/05 07:33:28;;;;;;;0.60;0.60;;;;;;;11.76;59.67;94953.81;5010365;28;20049;-77
2023/11/05 07:35:53;;;;;;;0.52;0.52;;;;;;;11.74;59.77;94954.81;4997885;28;20045;-76
2023/11/05 07:38:19;;;;;;;0.60;0.60;;;;;;;11.78;59.96;94959.97;5010365;28;20543;-78
2023/11/05 07:40:45;;;;;;;0.50;0.50;;;;;;;11.96;59.65;94952.25;5008493;28;20060;-79
2023/11/05 07:43:10;;;;;;;0.50;0.50;;;;;;;11.96;59.52;94968.28;5011193;28;20030;-80
2023/11/05 07:45:36;;;;;;;0.60;0.60;;;;;;;12.07;59.67;94963.41;4991798;28;20387;-78
2023/11/05 07:48:02;;;;;;;0.60;0.60;;;;;;;12.26;59.50;94967.16;5007593;28;20033;-78
2023/11/05 07:50:27;;;;;;;0.60;0.60;;;;;;;12.40;58.61;94976.44;4990821;28;20050;-75
2023/11/05 07:52:53;;;;;;;0.50;0.50;;;;;;;12.40;58.42;94979.97;5011551;28;20105;-78
2023/11/05 07:55:18;;;;;;;0.50;0.50;;;;;;;12.48;58.25;94972.53;5009746;28;20075;-78
2023/11/05 07:57:45;;;;;;;0.50;0.50;;;;;;;12.42;58.75;94987.94;5006252;28;20049;-78
2023/11/05 08:00:15;;;;;;;0.50;0.50;;;;;;;12.45;58.74;94999.38;4997162;28;20146;-77
2023/11/05 08:02:42;;;;;;;0.50;0.50;;;;;;;12.45;58.57;94999.38;4996245;28;20040;-77
2023/11/05 08:05:08;;;;;;;0.60;0.60;;;;;;;12.45;58.66;95003.84;5006830;28;20378;-77
2023/11/05 08:07:34;;;;;;;0.53;0.53;;;;;;;12.65;58.79;95011.09;4996180;28;20049;-77
2023/11/05 08:09:59;;;;;;;0.50;0.50;;;;;;;12.56;58.73;95015.91;5008778;28;20038;-78
2023/11/05 08:12:25;;;;;;;0.50;0.50;;;;;;;12.43;58.44;95011.94;5006803;28;20133;-78
2023/11/05 08:14:50;;;;;;;0.50;0.50;;;;;;;12.38;58.74;95021.94;5008774;28;20030;-78
2023/11/05 08:17:16;;;;;;;0.50;0.50;;;;;;;12.58;58.56;95024.72;5008084;28;20049;-76
2023/11/05 08:19:41;;;;;;;0.50;0.50;;;;;;;12.46;58.02;95022.53;5014229;28;20038;-78
2023/11/05 08:22:07;;;;;;;0.40;0.40;;;;;;;12.57;58.32;95046.19;4995799;28;20103;-78
2023/11/05 08:24:33;;;;;;;0.40;0.40;;;;;;;12.52;58.92;95043.69;5007608;28;20053;-78
2023/11/05 08:26:59;;;;;;;0.50;0.50;;;;;;;12.30;59.29;95054.28;5007132;28;20025;-76
2023/11/05 08:29:24;;;;;;;0.43;0.43;;;;;;;12.29;59.34;95059.69;5008875;28;20043;-77
2023/11/05 08:31:50;;;;;;;0.50;0.50;;;;;;;12.18;59.83;95060.09;5010047;28;20408;-77
2023/11/05 08:34:15;;;;;;;0.47;0.47;;;;;;;12.15;60.34;95060.19;5009315;28;20041;-79
2023/11/05 08:36:41;;;;;;;0.50;0.50;;;;;;;12.24;59.94;95067.00;5002768;28;20038;-78
2023/11/05 08:39:08;;;;;;;0.50;0.50;;;;;;;12.24;59.35;95064.34;5008869;28;20029;-78
2023/11/05 08:41:33;;;;;;;0.50;0.50;;;;;;;12.15;60.21;95078.03;5006834;28;20041;-78
2023/11/05 08:43:59;;;;;;;0.50;0.50;;;;;;;12.24;59.34;95070.56;5008671;28;20050;-78
2023/11/05 08:46:25;;;;;;;0.50;0.50;;;;;;;12.36;58.68;95087.97;5009615;28;20073;-78
2023/11/05 08:48:51;;;;;;;0.50;0.50;;;;;;;12.42;58.50;95100.22;4992754;28;20092;-77
2023/11/05 08:51:26;;;;;;;0.50;0.50;;;;;;;12.49;58.97;95113.31;5002880;28;20045;-77
2023/11/05 08:53:53;;;;;;;0.50;0.50;;;;;;;12.79;58.17;95126.47;5007642;28;20034;-77
2023/11/05 08:56:22;;;;;;;0.60;0.60;;;;;;;13.67;55.56;95137.34;5005952;28;20038;-78
2023/11/05 08:58:48;;;;;;;0.50;0.50;;;;;;;13.15;56.61;95128.69;5007662;28;20048;-77
2023/11/05 09:01:17;;;;;;;0.52;0.52;;;;;;;13.25;56.96;95130.09;4996038;28;20041;-79
2023/11/05 09:03:44;;;;;;;0.50;0.50;;;;;;;13.33;56.38;95138.72;5013510;28;20057;-79
2023/11/05 09:06:09;;;;;;;0.60;0.60;;;;;;;14.10;54.13;95123.03;5011918;28;20039;-79
2023/11/05 09:08:39;;;;;;;0.50;0.50;;;;;;;13.66;55.23;95143.66;5006920;28;20555;-79
2023/11/05 09:11:05;;;;;;;0.60;0.60;;;;;;;13.90;54.66;95137.28;5012258;28;20359;-79
2023/11/05 09:13:31;;;;;;;0.30;0.30;;;;;;;14.16;53.89;95172.84;4998407;28;20440;-78
2023/11/05 09:15:56;;;;;;;0.40;0.40;;;;;;;13.79;55.06;95132.34;5011767;28;20069;-79
2023/11/05 09:18:22;;;;;;;0.40;0.40;;;;;;;13.64;55.87;95158.91;4997737;28;20955;-78
2023/11/05 09:20:47;;;;;;;0.40;0.40;;;;;;;13.90;55.80;95160.53;4988019;28;20034;-79
2023/11/05 09:23:13;;;;;;;0.40;0.40;;;;;;;13.35;56.45;95177.00;5013979;28;20037;-80
2023/11/05 09:25:38;;;;;;;0.40;0.40;;;;;;;13.19;57.02;95178.50;5012789;28;20411;-79
2023/11/05 09:28:07;;;;;;;0.40;0.40;;;;;;;13.03;57.54;95188.88;4992784;28;20558;-79
2023/11/05 09:30:33;;;;;;;0.50;0.50;;;;;;;13.00;57.90;95197.91;5007000;28;20045;-80
2023/11/05 09:32:59;;;;;;;0.60;0.60;;;;;;;13.14;57.41;95199.22;5007466;28;20033;-80
2023/11/05 09:35:25;;;;;;;0.50;0.50;;;;;;;13.20;57.28;95209.69;5006331;28;20467;-79
2023/11/05 09:37:50;;;;;;;0.50;0.50;;;;;;;13.38;56.92;95213.50;5011564;28;20029;-78
2023/11/05 09:40:16;;;;;;;0.50;0.50;;;;;;;13.28;57.77;95210.31;4991751;28;20037;-79
2023/11/05 09:43:05;;;;;;;0.47;0.47;;;;;;;12.65;60.46;95217.94;4985166;28;20037;-79
2023/11/05 09:45:34;;;;;;;0.50;0.50;;;;;;;12.56;60.49;95218.25;5008985;28;20476;-79
2023/11/05 09:48:06;;;;;;;0.40;0.40;;;;;;;12.39;61.63;95236.66;4993308;28;20129;-79
2023/11/05 09:50:36;;;;;;;0.50;0.50;;;;;;;11.96;63.07;95243.44;5010186;28;20061;-77
2023/11/05 09:53:12;;;;;;;0.50;0.50;;;;;;;11.40;67.12;95244.28;5008240;28;20487;-78
2023/11/05 09:55:41;;;;;;;0.50;0.50;;;;;;;11.21;66.36;95251.03;5001941;28;20065;-78
2023/11/05 09:58:08;;;;;;;0.60;0.60;;;;;;;11.04;68.28;95260.41;5004282;28;20486;-76
2023/11/05 10:00:35;;;;;;;0.60;0.60;;;;;;;10.97;68.75;95265.97;5006197;28;20100;-76
2023/11/05 10:03:09;;;;;;;0.60;0.60;;;;;;;11.00;67.71;95266.75;5003000;28;20036;-75
2023/11/05 10:05:43;;;;;;;0.60;0.60;;;;;;;11.14;67.83;95281.50;5003271;28;20128;-76
2023/11/05 10:08:10;;;;;;;0.60;0.60;;;;;;;11.19;67.21;95284.91;5004533;28;20099;-76
2023/11/05 10:10:41;;;;;;;0.60;0.60;;;;;;;11.45;64.93;95285.03;5002599;28;20042;-76
2023/11/05 10:13:07;;;;;;;0.60;0.60;;;;;;;11.56;65.70;95301.59;4982111;28;20637;-76
2023/11/05 10:15:40;;;;;;;0.50;0.50;;;;;;;11.33;66.70;95287.19;5006023;28;20108;-76
2023/11/05 10:18:11;;;;;;;0.60;0.60;;;;;;;11.51;64.93;95298.19;5009146;28;20139;-76
2023/11/05 10:20:50;;;;;;;0.60;0.60;;;;;;;11.82;63.42;95295.50;5006898;28;20038;-79
2023/11/05 10:23:16;;;;;;;0.50;0.50;;;;;;;11.92;63.51;95304.09;4980064;28;20570;-76
2023/11/05 10:25:46;;;;;;;0.50;0.50;;;;;;;12.04;62.07;95325.09;5003471;28;21674;-77
2023/11/05 10:28:13;;;;;;;0.50;0.50;;;;;;;11.86;63.66;95328.34;5008255;28;20849;-77
2023/11/05 10:30:41;;;;;;;0.50;0.50;;;;;;;11.48;64.94;95332.97;5003733;28;20482;-77
2023/11/05 10:33:08;;;;;;;0.50;0.50;;;;;;;11.48;65.68;95350.78;5003577;28;20091;-77
2023/11/05 10:35:35;;;;;;;0.60;0.60;;;;;;;11.52;65.23;95347.13;5009816;28;20092;-77
2023/11/05 10:38:02;;;;;;;0.57;0.57;;;;;;;11.68;65.63;95344.88;5008088;28;20042;-77
2023/11/05 10:40:28;;;;;;;0.60;0.60;;;;;;;11.80;65.01;95342.72;5005231;28;20142;-77
2023/11/05 10:42:54;;;;;;;0.50;0.50;;;;;;;11.73;65.30;95342.94;5007352;28;20045;-77
2023/11/05 10:45:24;;;;;;;0.40;0.40;;;;;;;11.79;64.98;95356.13;4993007;28;20033;-77
2023/11/05 10:47:50;;;;;;;0.50;0.50;;;;;;;11.29;67.05;95362.00;5012638;28;20033;-76
2023/11/05 10:50:26;;;;;;;0.60;0.60;;;;;;;10.96;69.22;95377.09;5007540;28;20033;-77
2023/11/05 10:52:56;;;;;;;0.55;0.55;;;;;;;10.74;70.04;95378.59;5006232;28;20037;-76
2023/11/05 10:55:41;;;;;;;0.60;0.60;;;;;;;10.78;70.95;95385.63;5009093;28;20125;-76
2023/11/05 10:58:07;;;;;;;0.60;0.60;;;;;;;10.75;71.01;95412.34;5003746;28;20724;-77
2023/11/05 11:00:32;;;;;;;0.60;0.60;;;;;;;10.77;71.58;95405.16;4995626;28;20480;-76
2023/11/05 11:03:02;;;;;;;0.65;0.65;;;;;;;11.19;70.42;95408.53;5005221;28;20109;-75
2023/11/05 11:05:43;;;;;;;0.70;0.70;;;;;;;11.70;69.37;95413.34;4981919;28;20192;-77
2023/11/05 11:08:15;;;;;;;0.60;0.60;;;;;;;11.37;70.68;95403.63;5008678;28;20847;-78
2023/11/05 11:10:43;;;;;;;0.60;0.60;;;;;;;10.91;72.73;95413.69;5009596;28;20619;-77
2023/11/05 11:13:14;;;;;;;0.60;0.60;;;;;;;10.92;72.75;95419.91;4992139;28;20394;-75
2023/11/05 11:15:41;;;;;;;0.60;0.60;;;;;;;10.86;72.73;95412.94;5007251;28;20399;-78
2023/11/05 11:18:23;;;;;;;0.60;0.60;;;;;;;10.87;74.08;95427.16;4999688;28;20049;-80
2023/11/05 11:20:54;;;;;;;0.60;0.60;;;;;;;10.76;74.96;95417.63;5004493;28;20433;-78
2023/11/05 11:23:21;;;;;;;0.60;0.60;;;;;;;10.61;75.28;95447.34;4998500;28;20037;-77
2023/11/05 11:25:55;;;;;;;;;;;;;;;10.40;76.16;95448.72;4986752;28;20046;-78
2023/11/05 11:28:21;;;;;;;0.60;0.60;;;;;;;10.33;76.50;95449.75;4999163;28;19983;-79
2023/11/05 11:30:47;;;;;;;0.60;0.60;;;;;;;10.23;77.78;95450.84;4998233;28;20517;-76
2023/11/05 11:33:13;;;;;;;0.50;0.50;;;;;;;10.22;78.91;95457.09;4992650;28;20065;-77